sensor_id;sensor_type;location;lat;lon;timestamp;pressure;altitude;pressure_sealevel;temperature;humidity
16190;BME280;41754;51.498;7.540;2023-01-10T00:00:42;99853.78;;;8.82;64.13
16190;BME280;41754;51.498;7.540;2023-01-10T00:03:12;99850.59;;;8.88;65.58
16190;BME280;41754;51.498;7.540;2023-01-10T00:05:40;99854.34;;;9.15;64.22
16190;BME280;41754;51.498;7.540;2023-01-10T00:08:11;99867.13;;;9.19;63.35
16190;BME280;41754;51.498;7.540;2023-01-10T00:10:41;99870.34;;;8.63;64.55
16190;BME280;41754;51.498;7.540;2023-01-10T00:13:13;99880.75;;;8.88;65.19
16190;BME280;41754;51.498;7.540;2023-01-10T00:15:51;99863.19;;;8.89;64.78
16190;BME280;41754;51.498;7.540;2023-01-10T00:18:21;99884.53;;;8.79;65.26
16190;BME280;41754;51.498;7.540;2023-01-10T00:20:49;99891.16;;;8.64;66.69
16190;BME280;41754;51.498;7.540;2023-01-10T00:23:17;99895.31;;;7.65;68.61
16190;BME280;41754;51.498;7.540;2023-01-10T00:25:48;99907.44;;;8.46;69.03
16190;BME280;41754;51.498;7.540;2023-01-10T00:28:16;99916.47;;;8.61;66.28
16190;BME280;41754;51.498;7.540;2023-01-10T00:30:47;99925.53;;;7.60;66.72
16190;BME280;41754;51.498;7.540;2023-01-10T00:33:17;99940.63;;;6.39;74.66
16190;BME280;41754;51.498;7.540;2023-01-10T00:35:47;99942.66;;;6.53;76.42
16190;BME280;41754;51.498;7.540;2023-01-10T00:38:15;99956.09;;;6.49;73.88
16190;BME280;41754;51.498;7.540;2023-01-10T00:40:44;99944.19;;;7.58;69.59
16190;BME280;41754;51.498;7.540;2023-01-10T00:43:12;99962.69;;;6.67;75.69
16190;BME280;41754;51.498;7.540;2023-01-10T00:46:10;99966.56;;;6.42;75.83
16190;BME280;41754;51.498;7.540;2023-01-10T00:48:37;99977.75;;;6.46;77.51
16190;BME280;41754;51.498;7.540;2023-01-10T00:51:08;99967.50;;;6.56;77.95
16190;BME280;41754;51.498;7.540;2023-01-10T00:53:35;99987.16;;;6.58;77.57
16190;BME280;41754;51.498;7.540;2023-01-10T00:56:04;99993.22;;;6.31;78.83
16190;BME280;41754;51.498;7.540;2023-01-10T00:58:32;99999.81;;;6.25;79.07
16190;BME280;41754;51.498;7.540;2023-01-10T01:01:00;99981.88;;;6.86;73.99
16190;BME280;41754;51.498;7.540;2023-01-10T01:03:28;99977.69;;;7.50;68.42
16190;BME280;41754;51.498;7.540;2023-01-10T01:05:56;99989.81;;;8.55;67.07
16190;BME280;41754;51.498;7.540;2023-01-10T01:08:25;99984.94;;;7.41;67.93
16190;BME280;41754;51.498;7.540;2023-01-10T01:10:53;99995.47;;;8.31;69.76
16190;BME280;41754;51.498;7.540;2023-01-10T01:13:21;99986.25;;;8.82;65.66
16190;BME280;41754;51.498;7.540;2023-01-10T01:15:49;100015.31;;;6.59;70.37
16190;BME280;41754;51.498;7.540;2023-01-10T01:18:19;100025.19;;;6.31;76.46
16190;BME280;41754;51.498;7.540;2023-01-10T01:20:52;100029.38;;;6.47;75.98
16190;BME280;41754;51.498;7.540;2023-01-10T01:23:20;100029.72;;;6.40;77.69
16190;BME280;41754;51.498;7.540;2023-01-10T01:25:50;100042.41;;;6.55;77.03
16190;BME280;41754;51.498;7.540;2023-01-10T01:28:19;100045.66;;;8.73;67.49
16190;BME280;41754;51.498;7.540;2023-01-10T01:30:48;100038.34;;;8.55;66.09
16190;BME280;41754;51.498;7.540;2023-01-10T01:33:16;100041.00;;;8.73;64.22
16190;BME280;41754;51.498;7.540;2023-01-10T01:35:46;100049.53;;;8.99;64.04
16190;BME280;41754;51.498;7.540;2023-01-10T01:38:15;100047.13;;;8.84;63.16
16190;BME280;41754;51.498;7.540;2023-01-10T01:40:43;100061.91;;;7.39;66.04
16190;BME280;41754;51.498;7.540;2023-01-10T01:43:22;100084.06;;;5.79;75.76
16190;BME280;41754;51.498;7.540;2023-01-10T01:45:51;100088.47;;;5.75;77.71
16190;BME280;41754;51.498;7.540;2023-01-10T01:48:27;100093.22;;;5.98;78.65
16190;BME280;41754;51.498;7.540;2023-01-10T01:51:00;100095.59;;;6.10;77.27
16190;BME280;41754;51.498;7.540;2023-01-10T01:53:34;100101.72;;;6.26;77.57
16190;BME280;41754;51.498;7.540;2023-01-10T01:56:08;100099.63;;;5.78;79.38
16190;BME280;41754;51.498;7.540;2023-01-10T01:58:44;100097.88;;;5.53;79.82
16190;BME280;41754;51.498;7.540;2023-01-10T02:01:14;100084.50;;;8.01;74.62
16190;BME280;41754;51.498;7.540;2023-01-10T02:03:46;100081.81;;;8.61;65.85
16190;BME280;41754;51.498;7.540;2023-01-10T02:06:15;100087.34;;;8.29;65.15
16190;BME280;41754;51.498;7.540;2023-01-10T02:08:51;100109.25;;;6.39;73.67
16190;BME280;41754;51.498;7.540;2023-01-10T02:11:21;100108.75;;;6.03;76.30
16190;BME280;41754;51.498;7.540;2023-01-10T02:13:51;100095.94;;;8.55;68.74
16190;BME280;41754;51.498;7.540;2023-01-10T02:16:20;100089.19;;;8.80;63.76
16190;BME280;41754;51.498;7.540;2023-01-10T02:18:48;100087.16;;;8.85;62.96
16190;BME280;41754;51.498;7.540;2023-01-10T02:21:31;100097.47;;;8.74;61.88
16190;BME280;41754;51.498;7.540;2023-01-10T02:27:30;100106.47;;;9.08;61.13
16190;BME280;41754;51.498;7.540;2023-01-10T02:33:09;100111.19;;;8.28;63.88
16190;BME280;41754;51.498;7.540;2023-01-10T02:35:51;100116.53;;;8.52;64.04
16190;BME280;41754;51.498;7.540;2023-01-10T02:38:31;100119.97;;;8.90;62.63
16190;BME280;41754;51.498;7.540;2023-01-10T02:41:08;100124.69;;;8.57;63.11
16190;BME280;41754;51.498;7.540;2023-01-10T02:43:45;100126.09;;;8.55;62.87
16190;BME280;41754;51.498;7.540;2023-01-10T02:46:16;100123.34;;;6.51;68.56
16190;BME280;41754;51.498;7.540;2023-01-10T02:48:48;100128.78;;;6.56;74.16
16190;BME280;41754;51.498;7.540;2023-01-10T02:51:18;100131.63;;;6.12;73.44
16190;BME280;41754;51.498;7.540;2023-01-10T02:53:47;100129.78;;;6.02;75.11
16190;BME280;41754;51.498;7.540;2023-01-10T02:59:41;100152.38;;;5.74;77.03
16190;BME280;41754;51.498;7.540;2023-01-10T03:02:24;100143.13;;;5.65;77.39
16190;BME280;41754;51.498;7.540;2023-01-10T03:05:03;100146.53;;;5.91;76.87
16190;BME280;41754;51.498;7.540;2023-01-10T03:07:42;100149.16;;;5.62;77.22
16190;BME280;41754;51.498;7.540;2023-01-10T03:10:16;100152.72;;;5.62;78.18
16190;BME280;41754;51.498;7.540;2023-01-10T03:12:47;100159.50;;;5.65;78.21
16190;BME280;41754;51.498;7.540;2023-01-10T03:15:21;100160.38;;;5.55;77.83
16190;BME280;41754;51.498;7.540;2023-01-10T03:17:53;100169.53;;;5.15;79.15
16190;BME280;41754;51.498;7.540;2023-01-10T03:20:24;100162.06;;;5.41;79.14
16190;BME280;41754;51.498;7.540;2023-01-10T03:22:54;100166.66;;;5.56;78.33
16190;BME280;41754;51.498;7.540;2023-01-10T03:25:26;100169.66;;;5.54;78.24
16190;BME280;41754;51.498;7.540;2023-01-10T03:28:02;100170.50;;;5.49;78.08
16190;BME280;41754;51.498;7.540;2023-01-10T03:30:38;100174.41;;;6.27;75.45
16190;BME280;41754;51.498;7.540;2023-01-10T03:33:08;100172.84;;;7.55;67.90
16190;BME280;41754;51.498;7.540;2023-01-10T03:35:49;100177.69;;;8.20;65.73
16190;BME280;41754;51.498;7.540;2023-01-10T03:38:26;100182.34;;;6.57;66.78
16190;BME280;41754;51.498;7.540;2023-01-10T03:41:02;100201.59;;;5.53;75.16
16190;BME280;41754;51.498;7.540;2023-01-10T03:43:36;100194.88;;;7.64;70.13
16190;BME280;41754;51.498;7.540;2023-01-10T03:46:27;100205.72;;;7.74;67.07
16190;BME280;41754;51.498;7.540;2023-01-10T03:48:58;100203.06;;;8.44;64.11
16190;BME280;41754;51.498;7.540;2023-01-10T03:51:28;100216.34;;;7.04;65.01
16190;BME280;41754;51.498;7.540;2023-01-10T03:53:58;100217.00;;;7.25;67.37
16190;BME280;41754;51.498;7.540;2023-01-10T03:56:26;100214.41;;;7.81;65.40
16190;BME280;41754;51.498;7.540;2023-01-10T03:58:54;100223.22;;;8.35;63.96
16190;BME280;41754;51.498;7.540;2023-01-10T04:01:22;100232.94;;;6.16;68.19
16190;BME280;41754;51.498;7.540;2023-01-10T04:03:50;100229.75;;;6.77;65.86
16190;BME280;41754;51.498;7.540;2023-01-10T04:06:18;100229.16;;;7.38;66.17
16190;BME280;41754;51.498;7.540;2023-01-10T04:08:48;100242.66;;;7.53;66.18
16190;BME280;41754;51.498;7.540;2023-01-10T04:11:16;100245.66;;;7.56;65.98
16190;BME280;41754;51.498;7.540;2023-01-10T04:13:43;100248.03;;;8.06;65.64
16190;BME280;41754;51.498;7.540;2023-01-10T04:16:11;100258.69;;;7.41;69.42
16190;BME280;41754;51.498;7.540;2023-01-10T04:18:39;100247.22;;;8.24;63.57
16190;BME280;41754;51.498;7.540;2023-01-10T04:21:07;100257.06;;;7.64;62.75
16190;BME280;41754;51.498;7.540;2023-01-10T04:23:35;100261.63;;;7.20;64.22
16190;BME280;41754;51.498;7.540;2023-01-10T04:26:04;100268.19;;;7.72;64.27
16190;BME280;41754;51.498;7.540;2023-01-10T04:28:32;100262.94;;;8.56;61.64
16190;BME280;41754;51.498;7.540;2023-01-10T04:31:00;100266.84;;;6.88;62.05
16190;BME280;41754;51.498;7.540;2023-01-10T04:33:28;100282.84;;;6.70;65.03
16190;BME280;41754;51.498;7.540;2023-01-10T04:35:56;100281.56;;;6.19;67.54
16190;BME280;41754;51.498;7.540;2023-01-10T04:38:24;100284.63;;;7.72;64.97
16190;BME280;41754;51.498;7.540;2023-01-10T04:40:52;100284.16;;;7.65;64.12
16190;BME280;41754;51.498;7.540;2023-01-10T04:43:23;100270.75;;;7.87;64.57
16190;BME280;41754;51.498;7.540;2023-01-10T04:45:51;100273.91;;;7.52;63.44
16190;BME280;41754;51.498;7.540;2023-01-10T04:48:19;100282.63;;;7.30;65.04
16190;BME280;41754;51.498;7.540;2023-01-10T04:50:48;100285.03;;;6.29;66.61
16190;BME280;41754;51.498;7.540;2023-01-10T04:53:17;100282.88;;;5.72;71.50
16190;BME280;41754;51.498;7.540;2023-01-10T04:55:45;100280.06;;;7.39;65.44
16190;BME280;41754;51.498;7.540;2023-01-10T04:58:13;100282.63;;;7.30;63.47
16190;BME280;41754;51.498;7.540;2023-01-10T05:00:42;100290.84;;;6.18;65.17
16190;BME280;41754;51.498;7.540;2023-01-10T05:03:10;100296.59;;;5.51;71.45
16190;BME280;41754;51.498;7.540;2023-01-10T05:05:38;100295.44;;;5.68;70.82
16190;BME280;41754;51.498;7.540;2023-01-10T05:08:06;100293.75;;;5.77;71.20
16190;BME280;41754;51.498;7.540;2023-01-10T05:10:34;100292.47;;;6.63;65.87
16190;BME280;41754;51.498;7.540;2023-01-10T05:13:02;100297.44;;;6.11;66.01
16190;BME280;41754;51.498;7.540;2023-01-10T05:15:30;100308.78;;;5.79;68.24
16190;BME280;41754;51.498;7.540;2023-01-10T05:17:59;100299.31;;;7.81;62.60
16190;BME280;41754;51.498;7.540;2023-01-10T05:20:27;100296.63;;;7.76;63.04
16190;BME280;41754;51.498;7.540;2023-01-10T05:22:55;100315.25;;;7.50;63.69
16190;BME280;41754;51.498;7.540;2023-01-10T05:25:23;100303.94;;;7.33;63.71
16190;BME280;41754;51.498;7.540;2023-01-10T05:27:51;100305.41;;;6.08;66.10
16190;BME280;41754;51.498;7.540;2023-01-10T05:30:19;100315.22;;;6.58;66.64
16190;BME280;41754;51.498;7.540;2023-01-10T05:32:47;100332.84;;;5.67;69.17
16190;BME280;41754;51.498;7.540;2023-01-10T05:35:16;100340.78;;;5.69;71.34
16190;BME280;41754;51.498;7.540;2023-01-10T05:37:44;100342.88;;;5.87;71.91
16190;BME280;41754;51.498;7.540;2023-01-10T05:40:12;100341.22;;;5.96;71.15
16190;BME280;41754;51.498;7.540;2023-01-10T05:42:40;100356.28;;;5.78;71.97
16190;BME280;41754;51.498;7.540;2023-01-10T05:45:09;100345.41;;;5.68;72.69
16190;BME280;41754;51.498;7.540;2023-01-10T05:47:37;100345.09;;;5.85;72.19
16190;BME280;41754;51.498;7.540;2023-01-10T05:50:06;100353.59;;;5.68;72.94
16190;BME280;41754;51.498;7.540;2023-01-10T05:52:35;100346.16;;;5.94;71.78
16190;BME280;41754;51.498;7.540;2023-01-10T05:55:04;100351.63;;;6.88;71.87
16190;BME280;41754;51.498;7.540;2023-01-10T05:57:32;100341.97;;;7.87;63.19
16190;BME280;41754;51.498;7.540;2023-01-10T06:00:00;100361.34;;;6.16;64.88
16190;BME280;41754;51.498;7.540;2023-01-10T06:02:37;100361.09;;;7.69;66.42
16190;BME280;41754;51.498;7.540;2023-01-10T06:05:05;100377.91;;;5.70;71.26
16190;BME280;41754;51.498;7.540;2023-01-10T06:07:34;100385.50;;;5.68;72.83
16190;BME280;41754;51.498;7.540;2023-01-10T06:10:03;100386.09;;;5.70;73.37
16190;BME280;41754;51.498;7.540;2023-01-10T06:12:30;100382.19;;;5.91;70.16
16190;BME280;41754;51.498;7.540;2023-01-10T06:14:58;100384.72;;;7.31;69.55
16190;BME280;41754;51.498;7.540;2023-01-10T06:17:26;100383.69;;;7.21;63.00
16190;BME280;41754;51.498;7.540;2023-01-10T06:19:54;100381.06;;;6.07;67.47
16190;BME280;41754;51.498;7.540;2023-01-10T06:22:22;100381.78;;;6.78;63.35
16190;BME280;41754;51.498;7.540;2023-01-10T06:24:53;100387.19;;;6.38;65.95
16190;BME280;41754;51.498;7.540;2023-01-10T06:27:20;100394.81;;;5.72;70.29
16190;BME280;41754;51.498;7.540;2023-01-10T06:29:48;100386.38;;;6.38;69.42
16190;BME280;41754;51.498;7.540;2023-01-10T06:32:16;100387.56;;;6.17;66.80
16190;BME280;41754;51.498;7.540;2023-01-10T06:34:44;100401.91;;;5.73;71.52
16190;BME280;41754;51.498;7.540;2023-01-10T06:37:11;100404.09;;;5.66;71.93
16190;BME280;41754;51.498;7.540;2023-01-10T06:39:39;100408.38;;;7.79;64.63
16190;BME280;41754;51.498;7.540;2023-01-10T06:42:08;100420.38;;;7.83;64.49
16190;BME280;41754;51.498;7.540;2023-01-10T06:44:36;100435.94;;;8.12;61.10
16190;BME280;41754;51.498;7.540;2023-01-10T06:47:04;100445.69;;;8.23;61.52
16190;BME280;41754;51.498;7.540;2023-01-10T06:49:31;100441.78;;;7.03;62.11
16190;BME280;41754;51.498;7.540;2023-01-10T06:51:59;100441.66;;;8.15;62.06
16190;BME280;41754;51.498;7.540;2023-01-10T06:54:27;100439.69;;;8.21;60.54
16190;BME280;41754;51.498;7.540;2023-01-10T06:56:55;100437.91;;;7.82;61.28
16190;BME280;41754;51.498;7.540;2023-01-10T06:59:24;100437.25;;;8.43;59.84
16190;BME280;41754;51.498;7.540;2023-01-10T07:01:51;100446.06;;;8.16;60.17
16190;BME280;41754;51.498;7.540;2023-01-10T07:04:19;100449.25;;;8.24;59.86
16190;BME280;41754;51.498;7.540;2023-01-10T07:06:47;100465.38;;;8.30;60.15
16190;BME280;41754;51.498;7.540;2023-01-10T07:09:15;100461.97;;;8.38;59.79
16190;BME280;41754;51.498;7.540;2023-01-10T07:11:43;100458.34;;;7.95;60.38
16190;BME280;41754;51.498;7.540;2023-01-10T07:14:11;100472.63;;;8.16;60.27
16190;BME280;41754;51.498;7.540;2023-01-10T07:16:40;100474.91;;;8.09;59.69
16190;BME280;41754;51.498;7.540;2023-01-10T07:19:07;100469.75;;;8.02;60.97
16190;BME280;41754;51.498;7.540;2023-01-10T07:21:35;100475.19;;;8.07;61.35
16190;BME280;41754;51.498;7.540;2023-01-10T07:24:03;100474.16;;;8.51;59.65
16190;BME280;41754;51.498;7.540;2023-01-10T07:26:31;100464.41;;;8.16;60.14
16190;BME280;41754;51.498;7.540;2023-01-10T07:28:59;100478.94;;;7.87;60.46
16190;BME280;41754;51.498;7.540;2023-01-10T07:31:27;100477.91;;;6.56;62.10
16190;BME280;41754;51.498;7.540;2023-01-10T07:33:56;100488.94;;;8.31;60.39
16190;BME280;41754;51.498;7.540;2023-01-10T07:36:24;100484.25;;;8.32;60.11
16190;BME280;41754;51.498;7.540;2023-01-10T07:38:51;100484.41;;;7.58;61.20
16190;BME280;41754;51.498;7.540;2023-01-10T07:41:19;100492.88;;;7.62;62.16
16190;BME280;41754;51.498;7.540;2023-01-10T07:43:47;100496.16;;;8.22;60.71
16190;BME280;41754;51.498;7.540;2023-01-10T07:46:15;100496.78;;;7.85;60.87
16190;BME280;41754;51.498;7.540;2023-01-10T07:48:43;100507.66;;;7.95;62.73
16190;BME280;41754;51.498;7.540;2023-01-10T07:51:13;100494.63;;;7.82;61.24
16190;BME280;41754;51.498;7.540;2023-01-10T07:53:41;100501.38;;;7.89;62.58
16190;BME280;41754;51.498;7.540;2023-01-10T07:56:09;100521.25;;;7.37;64.14
16190;BME280;41754;51.498;7.540;2023-01-10T07:58:37;100517.59;;;6.28;66.43
16190;BME280;41754;51.498;7.540;2023-01-10T08:01:05;100519.47;;;7.91;64.59
16190;BME280;41754;51.498;7.540;2023-01-10T08:03:33;100517.97;;;8.03;60.49
16190;BME280;41754;51.498;7.540;2023-01-10T08:06:03;100515.88;;;8.48;58.91
16190;BME280;41754;51.498;7.540;2023-01-10T08:08:33;100529.28;;;6.59;63.80
16190;BME280;41754;51.498;7.540;2023-01-10T08:11:01;100528.84;;;6.01;67.12
16190;BME280;41754;51.498;7.540;2023-01-10T08:13:29;100540.31;;;5.98;68.93
16190;BME280;41754;51.498;7.540;2023-01-10T08:15:57;100539.47;;;7.08;67.16
16190;BME280;41754;51.498;7.540;2023-01-10T08:18:26;100555.88;;;5.87;68.59
16190;BME280;41754;51.498;7.540;2023-01-10T08:20:54;100558.34;;;6.04;69.73
16190;BME280;41754;51.498;7.540;2023-01-10T08:23:22;100562.19;;;5.98;70.02
16190;BME280;41754;51.498;7.540;2023-01-10T08:25:51;100559.72;;;6.06;70.33
16190;BME280;41754;51.498;7.540;2023-01-10T08:28:20;100560.78;;;5.90;70.80
16190;BME280;41754;51.498;7.540;2023-01-10T08:30:48;100552.63;;;6.05;69.34
16190;BME280;41754;51.498;7.540;2023-01-10T08:33:21;100559.19;;;5.84;70.72
16190;BME280;41754;51.498;7.540;2023-01-10T08:35:50;100560.81;;;6.05;68.90
16190;BME280;41754;51.498;7.540;2023-01-10T08:38:17;100557.50;;;6.03;69.54
16190;BME280;41754;51.498;7.540;2023-01-10T08:40:45;100564.63;;;5.89;69.02
16190;BME280;41754;51.498;7.540;2023-01-10T08:43:14;100555.34;;;6.00;69.88
16190;BME280;41754;51.498;7.540;2023-01-10T08:45:42;100560.25;;;6.13;69.42
16190;BME280;41754;51.498;7.540;2023-01-10T08:48:10;100566.25;;;6.10;69.39
16190;BME280;41754;51.498;7.540;2023-01-10T08:50:38;100571.19;;;6.19;69.38
16190;BME280;41754;51.498;7.540;2023-01-10T08:53:06;100572.28;;;6.07;69.76
16190;BME280;41754;51.498;7.540;2023-01-10T08:55:33;100573.91;;;6.08;69.91
16190;BME280;41754;51.498;7.540;2023-01-10T08:58:01;100573.34;;;6.22;69.63
16190;BME280;41754;51.498;7.540;2023-01-10T09:00:31;100581.00;;;6.20;69.72
16190;BME280;41754;51.498;7.540;2023-01-10T09:02:58;100573.88;;;6.29;69.58
16190;BME280;41754;51.498;7.540;2023-01-10T09:05:26;100584.28;;;6.27;69.39
16190;BME280;41754;51.498;7.540;2023-01-10T09:07:57;100579.91;;;6.31;69.37
16190;BME280;41754;51.498;7.540;2023-01-10T09:10:25;100578.84;;;6.06;69.27
16190;BME280;41754;51.498;7.540;2023-01-10T09:12:53;100580.94;;;6.60;67.71
16190;BME280;41754;51.498;7.540;2023-01-10T09:15:21;100587.56;;;6.34;69.64
16190;BME280;41754;51.498;7.540;2023-01-10T09:17:53;100581.44;;;6.78;67.31
16190;BME280;41754;51.498;7.540;2023-01-10T09:20:23;100596.31;;;6.05;69.46
16190;BME280;41754;51.498;7.540;2023-01-10T09:22:51;100592.44;;;6.42;67.46
16190;BME280;41754;51.498;7.540;2023-01-10T09:25:20;100595.19;;;6.47;68.16
16190;BME280;41754;51.498;7.540;2023-01-10T09:27:54;100588.63;;;6.48;68.08
16190;BME280;41754;51.498;7.540;2023-01-10T09:30:23;100586.41;;;6.60;68.24
16190;BME280;41754;51.498;7.540;2023-01-10T09:32:53;100600.69;;;6.22;69.62
16190;BME280;41754;51.498;7.540;2023-01-10T09:35:21;100583.56;;;7.95;63.12
16190;BME280;41754;51.498;7.540;2023-01-10T09:37:52;100595.72;;;6.59;66.64
16190;BME280;41754;51.498;7.540;2023-01-10T09:40:30;100600.38;;;6.38;67.53
16190;BME280;41754;51.498;7.540;2023-01-10T09:43:07;100601.50;;;6.32;66.14
16190;BME280;41754;51.498;7.540;2023-01-10T09:45:44;100600.63;;;6.62;66.97
16190;BME280;41754;51.498;7.540;2023-01-10T09:48:21;100603.06;;;6.64;67.12
16190;BME280;41754;51.498;7.540;2023-01-10T09:51:02;100606.34;;;6.66;66.84
16190;BME280;41754;51.498;7.540;2023-01-10T09:53:39;100607.69;;;6.84;66.69
16190;BME280;41754;51.498;7.540;2023-01-10T09:56:12;100626.06;;;6.48;67.15
16190;BME280;41754;51.498;7.540;2023-01-10T09:58:41;100613.78;;;6.40;67.72
16190;BME280;41754;51.498;7.540;2023-01-10T10:01:14;100619.78;;;6.27;68.62
16190;BME280;41754;51.498;7.540;2023-01-10T10:03:52;100622.81;;;6.35;68.49
16190;BME280;41754;51.498;7.540;2023-01-10T10:06:23;100620.88;;;6.56;67.93
16190;BME280;41754;51.498;7.540;2023-01-10T10:08:51;100609.38;;;6.54;67.49
16190;BME280;41754;51.498;7.540;2023-01-10T10:11:33;100625.50;;;6.61;67.43
16190;BME280;41754;51.498;7.540;2023-01-10T10:14:10;100616.47;;;6.60;67.01
16190;BME280;41754;51.498;7.540;2023-01-10T10:16:54;100622.16;;;6.84;67.01
16190;BME280;41754;51.498;7.540;2023-01-10T10:19:39;100618.53;;;7.04;66.98
16190;BME280;41754;51.498;7.540;2023-01-10T10:22:15;100614.16;;;7.08;65.44
16190;BME280;41754;51.498;7.540;2023-01-10T10:24:53;100618.81;;;7.08;65.41
16190;BME280;41754;51.498;7.540;2023-01-10T10:27:34;100605.56;;;7.35;64.09
16190;BME280;41754;51.498;7.540;2023-01-10T10:30:23;100596.34;;;7.70;63.30
16190;BME280;41754;51.498;7.540;2023-01-10T10:33:05;100590.84;;;7.70;62.62
16190;BME280;41754;51.498;7.540;2023-01-10T10:35:45;100586.78;;;7.63;62.41
16190;BME280;41754;51.498;7.540;2023-01-10T10:38:18;100579.72;;;7.96;61.54
16190;BME280;41754;51.498;7.540;2023-01-10T10:40:49;100584.47;;;8.14;60.41
16190;BME280;41754;51.498;7.540;2023-01-10T10:43:23;100575.41;;;8.71;58.78
16190;BME280;41754;51.498;7.540;2023-01-10T10:45:56;100589.41;;;8.70;56.73
16190;BME280;41754;51.498;7.540;2023-01-10T10:48:28;100583.44;;;8.92;57.16
16190;BME280;41754;51.498;7.540;2023-01-10T10:51:03;100580.91;;;8.71;56.60
16190;BME280;41754;51.498;7.540;2023-01-10T10:53:33;100575.88;;;10.15;54.88
16190;BME280;41754;51.498;7.540;2023-01-10T10:56:02;100587.06;;;10.51;52.18
16190;BME280;41754;51.498;7.540;2023-01-10T10:58:31;100561.91;;;11.27;50.14
16190;BME280;41754;51.498;7.540;2023-01-10T11:00:59;100567.25;;;10.68;50.65
16190;BME280;41754;51.498;7.540;2023-01-10T11:03:34;100561.91;;;10.31;51.73
16190;BME280;41754;51.498;7.540;2023-01-10T11:06:07;100554.47;;;10.12;51.25
16190;BME280;41754;51.498;7.540;2023-01-10T11:08:38;100565.63;;;9.32;54.63
16190;BME280;41754;51.498;7.540;2023-01-10T11:11:15;100562.03;;;9.88;53.41
16190;BME280;41754;51.498;7.540;2023-01-10T11:13:47;100558.56;;;9.63;53.21
16190;BME280;41754;51.498;7.540;2023-01-10T11:16:27;100569.03;;;9.24;54.64
16190;BME280;41754;51.498;7.540;2023-01-10T11:19:09;100565.38;;;9.10;54.64
16190;BME280;41754;51.498;7.540;2023-01-10T11:21:39;100553.44;;;9.19;54.27
16190;BME280;41754;51.498;7.540;2023-01-10T11:24:20;100553.66;;;9.04;54.99
16190;BME280;41754;51.498;7.540;2023-01-10T11:26:50;100553.78;;;9.13;54.30
16190;BME280;41754;51.498;7.540;2023-01-10T11:29:23;100551.47;;;9.01;54.52
16190;BME280;41754;51.498;7.540;2023-01-10T11:31:53;100549.50;;;9.07;54.74
16190;BME280;41754;51.498;7.540;2023-01-10T11:34:24;100547.03;;;8.57;56.82
16190;BME280;41754;51.498;7.540;2023-01-10T11:36:56;100556.72;;;8.50;56.61
16190;BME280;41754;51.498;7.540;2023-01-10T11:39:25;100544.22;;;8.62;56.05
16190;BME280;41754;51.498;7.540;2023-01-10T11:41:53;100551.25;;;8.97;55.34
16190;BME280;41754;51.498;7.540;2023-01-10T11:44:23;100543.31;;;8.72;56.18
16190;BME280;41754;51.498;7.540;2023-01-10T11:46:54;100543.41;;;8.62;57.01
16190;BME280;41754;51.498;7.540;2023-01-10T11:49:27;100554.97;;;8.59;56.16
16190;BME280;41754;51.498;7.540;2023-01-10T11:52:03;100542.38;;;8.58;56.73
16190;BME280;41754;51.498;7.540;2023-01-10T11:54:31;100545.00;;;8.68;57.77
16190;BME280;41754;51.498;7.540;2023-01-10T11:57:02;100538.41;;;8.69;56.50
16190;BME280;41754;51.498;7.540;2023-01-10T11:59:31;100540.16;;;8.60;56.16
16190;BME280;41754;51.498;7.540;2023-01-10T12:02:01;100535.00;;;8.29;56.86
16190;BME280;41754;51.498;7.540;2023-01-10T12:04:32;100524.91;;;8.48;57.28
16190;BME280;41754;51.498;7.540;2023-01-10T12:07:05;100525.97;;;8.53;56.88
16190;BME280;41754;51.498;7.540;2023-01-10T12:09:37;100528.16;;;8.56;57.05
16190;BME280;41754;51.498;7.540;2023-01-10T12:12:15;100516.63;;;8.01;58.74
16190;BME280;41754;51.498;7.540;2023-01-10T12:14:44;100525.88;;;8.10;58.54
16190;BME280;41754;51.498;7.540;2023-01-10T12:17:22;100535.44;;;8.12;58.49
16190;BME280;41754;51.498;7.540;2023-01-10T12:19:51;100530.91;;;8.27;58.20
16190;BME280;41754;51.498;7.540;2023-01-10T12:22:25;100527.59;;;8.01;58.68
16190;BME280;41754;51.498;7.540;2023-01-10T12:24:54;100519.81;;;7.79;58.85
16190;BME280;41754;51.498;7.540;2023-01-10T12:27:24;100512.94;;;8.39;57.75
16190;BME280;41754;51.498;7.540;2023-01-10T12:30:01;100521.88;;;8.26;57.01
16190;BME280;41754;51.498;7.540;2023-01-10T12:32:35;100523.75;;;8.02;57.40
16190;BME280;41754;51.498;7.540;2023-01-10T12:35:06;100523.41;;;8.08;58.45
16190;BME280;41754;51.498;7.540;2023-01-10T12:37:45;100520.63;;;7.84;57.93
16190;BME280;41754;51.498;7.540;2023-01-10T12:40:20;100509.09;;;10.15;52.88
16190;BME280;41754;51.498;7.540;2023-01-10T12:42:54;100512.09;;;8.68;53.72
16190;BME280;41754;51.498;7.540;2023-01-10T12:45:45;100531.41;;;8.05;56.66
16190;BME280;41754;51.498;7.540;2023-01-10T12:48:21;100519.91;;;8.03;56.52
16190;BME280;41754;51.498;7.540;2023-01-10T12:50:56;100517.34;;;7.48;59.34
16190;BME280;41754;51.498;7.540;2023-01-10T12:53:30;100516.31;;;7.39;58.37
16190;BME280;41754;51.498;7.540;2023-01-10T12:56:02;100505.88;;;7.80;57.00
16190;BME280;41754;51.498;7.540;2023-01-10T12:58:38;100504.63;;;7.97;57.07
16190;BME280;41754;51.498;7.540;2023-01-10T13:01:10;100489.63;;;8.18;56.49
16190;BME280;41754;51.498;7.540;2023-01-10T13:03:39;100485.25;;;8.17;56.77
16190;BME280;41754;51.498;7.540;2023-01-10T13:06:15;100487.03;;;8.51;56.22
16190;BME280;41754;51.498;7.540;2023-01-10T13:08:49;100475.94;;;8.13;56.58
16190;BME280;41754;51.498;7.540;2023-01-10T13:11:20;100472.63;;;8.16;56.75
16190;BME280;41754;51.498;7.540;2023-01-10T13:13:53;100474.41;;;8.02;56.78
16190;BME280;41754;51.498;7.540;2023-01-10T13:16:28;100472.06;;;8.43;55.63
16190;BME280;41754;51.498;7.540;2023-01-10T13:19:00;100472.59;;;8.21;55.79
16190;BME280;41754;51.498;7.540;2023-01-10T13:21:30;100465.38;;;8.30;56.50
16190;BME280;41754;51.498;7.540;2023-01-10T13:24:02;100454.91;;;8.32;56.50
16190;BME280;41754;51.498;7.540;2023-01-10T13:26:49;100456.44;;;7.91;55.82
16190;BME280;41754;51.498;7.540;2023-01-10T13:29:20;100459.75;;;7.93;55.84